sensor_id;sensor_type;location;lat;lon;timestamp;P1;durP1;ratioP1;P2;durP2;ratioP2
14732;SDS011;7457;50.960;6.830;2023-09-19T00:02:23;4.75;;;2.40;;
14732;SDS011;7457;50.960;6.830;2023-09-19T00:04:48;6.85;;;2.40;;
14732;SDS011;7457;50.960;6.830;2023-09-19T00:07:15;6.93;;;2.10;;
14732;SDS011;7457;50.960;6.830;2023-09-19T00:09:41;10.10;;;2.42;;
14732;SDS011;7457;50.960;6.830;2023-09-19T00:12:09;6.43;;;2.67;;
14732;SDS011;7457;50.960;6.830;2023-09-19T00:14:35;6.30;;;2.50;;
14732;SDS011;7457;50.960;6.830;2023-09-19T00:19:49;8.50;;;2.80;;
14732;SDS011;7457;50.960;6.830;2023-09-19T00:22:18;9.00;;;3.25;;
14732;SDS011;7457;50.960;6.830;2023-09-19T00:24:43;11.57;;;2.70;;
14732;SDS011;7457;50.960;6.830;2023-09-19T00:27:21;5.55;;;2.97;;
14732;SDS011;7457;50.960;6.830;2023-09-19T00:29:47;6.03;;;2.60;;
14732;SDS011;7457;50.960;6.830;2023-09-19T00:32:13;8.70;;;3.13;;
14732;SDS011;7457;50.960;6.830;2023-09-19T00:34:38;6.93;;;2.90;;
14732;SDS011;7457;50.960;6.830;2023-09-19T00:37:19;5.30;;;2.35;;
14732;SDS011;7457;50.960;6.830;2023-09-19T00:39:45;5.72;;;2.47;;
14732;SDS011;7457;50.960;6.830;2023-09-19T00:42:17;7.30;;;2.60;;
14732;SDS011;7457;50.960;6.830;2023-09-19T00:44:45;8.35;;;2.67;;
14732;SDS011;7457;50.960;6.830;2023-09-19T00:47:11;7.10;;;2.47;;
14732;SDS011;7457;50.960;6.830;2023-09-19T00:49:41;7.40;;;2.58;;
14732;SDS011;7457;50.960;6.830;2023-09-19T00:52:08;5.30;;;2.80;;
14732;SDS011;7457;50.960;6.830;2023-09-19T00:54:35;5.28;;;2.70;;
14732;SDS011;7457;50.960;6.830;2023-09-19T00:57:01;8.70;;;2.38;;
14732;SDS011;7457;50.960;6.830;2023-09-19T00:59:27;8.30;;;2.42;;
14732;SDS011;7457;50.960;6.830;2023-09-19T01:01:55;7.50;;;2.50;;
14732;SDS011;7457;50.960;6.830;2023-09-19T01:04:21;9.45;;;2.85;;
14732;SDS011;7457;50.960;6.830;2023-09-19T01:06:48;6.55;;;2.38;;
14732;SDS011;7457;50.960;6.830;2023-09-19T01:09:18;4.35;;;2.47;;
14732;SDS011;7457;50.960;6.830;2023-09-19T01:11:50;5.25;;;2.30;;
14732;SDS011;7457;50.960;6.830;2023-09-19T01:14:34;7.00;;;2.10;;
14732;SDS011;7457;50.960;6.830;2023-09-19T01:22:42;7.97;;;2.67;;
14732;SDS011;7457;50.960;6.830;2023-09-19T01:28:20;7.20;;;2.53;;
14732;SDS011;7457;50.960;6.830;2023-09-19T01:31:06;9.32;;;2.35;;
14732;SDS011;7457;50.960;6.830;2023-09-19T01:33:57;5.50;;;2.63;;
14732;SDS011;7457;50.960;6.830;2023-09-19T01:36:38;8.68;;;2.42;;
14732;SDS011;7457;50.960;6.830;2023-09-19T01:39:04;7.55;;;2.90;;
14732;SDS011;7457;50.960;6.830;2023-09-19T01:44:36;5.55;;;2.13;;
14732;SDS011;7457;50.960;6.830;2023-09-19T01:47:17;4.60;;;2.17;;
14732;SDS011;7457;50.960;6.830;2023-09-19T01:49:59;9.88;;;3.45;;
14732;SDS011;7457;50.960;6.830;2023-09-19T01:52:47;8.82;;;3.17;;
14732;SDS011;7457;50.960;6.830;2023-09-19T01:55:17;9.20;;;2.70;;
14732;SDS011;7457;50.960;6.830;2023-09-19T01:58:06;7.25;;;2.38;;
14732;SDS011;7457;50.960;6.830;2023-09-19T02:00:32;10.43;;;2.20;;
14732;SDS011;7457;50.960;6.830;2023-09-19T02:03:01;14.80;;;2.80;;
14732;SDS011;7457;50.960;6.830;2023-09-19T02:05:27;8.23;;;2.65;;
14732;SDS011;7457;50.960;6.830;2023-09-19T02:07:54;8.30;;;2.92;;
14732;SDS011;7457;50.960;6.830;2023-09-19T02:10:20;8.00;;;2.95;;
14732;SDS011;7457;50.960;6.830;2023-09-19T02:12:48;6.20;;;2.50;;
14732;SDS011;7457;50.960;6.830;2023-09-19T02:15:14;9.05;;;3.17;;
14732;SDS011;7457;50.960;6.830;2023-09-19T02:17:41;9.00;;;2.30;;
14732;SDS011;7457;50.960;6.830;2023-09-19T02:20:08;8.23;;;2.60;;
14732;SDS011;7457;50.960;6.830;2023-09-19T02:22:35;9.57;;;2.63;;
14732;SDS011;7457;50.960;6.830;2023-09-19T02:25:01;8.18;;;2.63;;
14732;SDS011;7457;50.960;6.830;2023-09-19T02:27:30;5.95;;;2.33;;
14732;SDS011;7457;50.960;6.830;2023-09-19T02:29:56;13.73;;;4.03;;
14732;SDS011;7457;50.960;6.830;2023-09-19T02:32:21;7.65;;;2.63;;
14732;SDS011;7457;50.960;6.830;2023-09-19T02:34:48;7.53;;;2.53;;
14732;SDS011;7457;50.960;6.830;2023-09-19T02:37:13;6.85;;;2.97;;
14732;SDS011;7457;50.960;6.830;2023-09-19T02:39:41;6.70;;;2.45;;
14732;SDS011;7457;50.960;6.830;2023-09-19T02:42:19;12.73;;;3.10;;
14732;SDS011;7457;50.960;6.830;2023-09-19T02:44:45;7.78;;;2.88;;
14732;SDS011;7457;50.960;6.830;2023-09-19T02:47:12;11.13;;;2.38;;
14732;SDS011;7457;50.960;6.830;2023-09-19T02:49:37;15.95;;;2.70;;
14732;SDS011;7457;50.960;6.830;2023-09-19T02:52:03;8.15;;;3.10;;
14732;SDS011;7457;50.960;6.830;2023-09-19T02:54:29;3.67;;;2.20;;
14732;SDS011;7457;50.960;6.830;2023-09-19T02:56:55;9.82;;;2.75;;
14732;SDS011;7457;50.960;6.830;2023-09-19T02:59:21;10.20;;;3.00;;
14732;SDS011;7457;50.960;6.830;2023-09-19T03:01:58;5.47;;;2.45;;
14732;SDS011;7457;50.960;6.830;2023-09-19T03:04:25;9.02;;;3.25;;
14732;SDS011;7457;50.960;6.830;2023-09-19T03:06:51;14.82;;;3.08;;
14732;SDS011;7457;50.960;6.830;2023-09-19T03:09:18;12.98;;;2.90;;
14732;SDS011;7457;50.960;6.830;2023-09-19T03:11:44;4.72;;;2.55;;
14732;SDS011;7457;50.960;6.830;2023-09-19T03:14:11;7.10;;;2.90;;
14732;SDS011;7457;50.960;6.830;2023-09-19T03:16:37;10.07;;;2.50;;
14732;SDS011;7457;50.960;6.830;2023-09-19T03:19:03;6.68;;;2.45;;
14732;SDS011;7457;50.960;6.830;2023-09-19T03:21:41;7.57;;;3.15;;
14732;SDS011;7457;50.960;6.830;2023-09-19T03:24:06;8.70;;;2.83;;
14732;SDS011;7457;50.960;6.830;2023-09-19T03:26:47;6.90;;;2.50;;
14732;SDS011;7457;50.960;6.830;2023-09-19T03:29:13;6.60;;;2.67;;
14732;SDS011;7457;50.960;6.830;2023-09-19T03:31:39;6.90;;;2.75;;
14732;SDS011;7457;50.960;6.830;2023-09-19T03:34:04;10.13;;;3.22;;
14732;SDS011;7457;50.960;6.830;2023-09-19T03:36:46;12.20;;;3.22;;
14732;SDS011;7457;50.960;6.830;2023-09-19T03:39:11;11.50;;;3.13;;
14732;SDS011;7457;50.960;6.830;2023-09-19T03:41:40;13.50;;;3.28;;
14732;SDS011;7457;50.960;6.830;2023-09-19T03:44:06;11.20;;;3.25;;
14732;SDS011;7457;50.960;6.830;2023-09-19T03:46:44;7.82;;;3.20;;
14732;SDS011;7457;50.960;6.830;2023-09-19T03:49:10;9.95;;;3.05;;
14732;SDS011;7457;50.960;6.830;2023-09-19T03:51:35;10.80;;;2.67;;
14732;SDS011;7457;50.960;6.830;2023-09-19T03:54:02;12.30;;;2.90;;
14732;SDS011;7457;50.960;6.830;2023-09-19T03:59:22;9.82;;;2.90;;
14732;SDS011;7457;50.960;6.830;2023-09-19T04:01:47;6.85;;;3.17;;
14732;SDS011;7457;50.960;6.830;2023-09-19T04:04:13;8.40;;;3.83;;
14732;SDS011;7457;50.960;6.830;2023-09-19T04:06:54;12.10;;;2.67;;
14732;SDS011;7457;50.960;6.830;2023-09-19T04:09:20;8.52;;;2.42;;
14732;SDS011;7457;50.960;6.830;2023-09-19T04:11:45;7.63;;;2.97;;
14732;SDS011;7457;50.960;6.830;2023-09-19T04:14:11;12.25;;;2.72;;
14732;SDS011;7457;50.960;6.830;2023-09-19T04:16:36;8.05;;;2.53;;
14732;SDS011;7457;50.960;6.830;2023-09-19T04:19:02;9.65;;;3.08;;
14732;SDS011;7457;50.960;6.830;2023-09-19T04:21:43;10.27;;;3.70;;
14732;SDS011;7457;50.960;6.830;2023-09-19T04:24:09;10.30;;;2.60;;
14732;SDS011;7457;50.960;6.830;2023-09-19T04:26:50;6.72;;;2.63;;
14732;SDS011;7457;50.960;6.830;2023-09-19T04:29:17;8.35;;;2.80;;
14732;SDS011;7457;50.960;6.830;2023-09-19T04:31:44;6.97;;;2.28;;
14732;SDS011;7457;50.960;6.830;2023-09-19T04:34:11;9.38;;;2.80;;
14732;SDS011;7457;50.960;6.830;2023-09-19T04:36:51;10.60;;;2.45;;
14732;SDS011;7457;50.960;6.830;2023-09-19T04:39:17;14.52;;;2.88;;
14732;SDS011;7457;50.960;6.830;2023-09-19T04:41:43;14.15;;;2.65;;
14732;SDS011;7457;50.960;6.830;2023-09-19T04:44:09;8.93;;;2.60;;
14732;SDS011;7457;50.960;6.830;2023-09-19T04:49:29;6.20;;;2.40;;
14732;SDS011;7457;50.960;6.830;2023-09-19T04:52:10;10.60;;;2.78;;
14732;SDS011;7457;50.960;6.830;2023-09-19T04:54:35;11.35;;;2.50;;
14732;SDS011;7457;50.960;6.830;2023-09-19T04:57:01;8.80;;;2.50;;
14732;SDS011;7457;50.960;6.830;2023-09-19T04:59:27;8.35;;;2.40;;
14732;SDS011;7457;50.960;6.830;2023-09-19T05:02:08;8.32;;;2.83;;
14732;SDS011;7457;50.960;6.830;2023-09-19T05:04:34;10.52;;;2.53;;
14732;SDS011;7457;50.960;6.830;2023-09-19T05:07:00;12.18;;;3.55;;
14732;SDS011;7457;50.960;6.830;2023-09-19T05:09:28;10.95;;;2.80;;
14732;SDS011;7457;50.960;6.830;2023-09-19T05:12:06;8.60;;;2.75;;
14732;SDS011;7457;50.960;6.830;2023-09-19T05:14:32;8.85;;;2.65;;
14732;SDS011;7457;50.960;6.830;2023-09-19T05:16:57;14.18;;;3.28;;
14732;SDS011;7457;50.960;6.830;2023-09-19T05:19:23;9.35;;;2.58;;
14732;SDS011;7457;50.960;6.830;2023-09-19T05:21:48;11.85;;;3.13;;
14732;SDS011;7457;50.960;6.830;2023-09-19T05:24:14;6.63;;;2.28;;
14732;SDS011;7457;50.960;6.830;2023-09-19T05:26:57;9.25;;;2.60;;
14732;SDS011;7457;50.960;6.830;2023-09-19T05:29:22;9.73;;;2.88;;
14732;SDS011;7457;50.960;6.830;2023-09-19T05:31:48;10.02;;;3.00;;
14732;SDS011;7457;50.960;6.830;2023-09-19T05:34:14;7.80;;;3.38;;
14732;SDS011;7457;50.960;6.830;2023-09-19T05:36:40;8.65;;;2.75;;
14732;SDS011;7457;50.960;6.830;2023-09-19T05:39:06;8.15;;;3.08;;
14732;SDS011;7457;50.960;6.830;2023-09-19T05:41:34;7.93;;;3.00;;
14732;SDS011;7457;50.960;6.830;2023-09-19T05:44:05;9.45;;;3.15;;
14732;SDS011;7457;50.960;6.830;2023-09-19T05:46:35;7.53;;;2.97;;
14732;SDS011;7457;50.960;6.830;2023-09-19T05:49:00;11.10;;;2.80;;
14732;SDS011;7457;50.960;6.830;2023-09-19T05:51:26;9.65;;;2.83;;
14732;SDS011;7457;50.960;6.830;2023-09-19T05:53:53;6.88;;;2.85;;
14732;SDS011;7457;50.960;6.830;2023-09-19T05:56:19;8.98;;;2.40;;
14732;SDS011;7457;50.960;6.830;2023-09-19T05:58:45;9.27;;;3.15;;
14732;SDS011;7457;50.960;6.830;2023-09-19T06:01:11;10.00;;;3.20;;
14732;SDS011;7457;50.960;6.830;2023-09-19T06:03:37;11.50;;;2.80;;
14732;SDS011;7457;50.960;6.830;2023-09-19T06:06:02;10.75;;;2.90;;
14732;SDS011;7457;50.960;6.830;2023-09-19T06:08:29;9.25;;;2.70;;
14732;SDS011;7457;50.960;6.830;2023-09-19T06:10:56;12.45;;;2.95;;
14732;SDS011;7457;50.960;6.830;2023-09-19T06:13:21;8.32;;;2.88;;
14732;SDS011;7457;50.960;6.830;2023-09-19T06:15:48;8.27;;;2.72;;
14732;SDS011;7457;50.960;6.830;2023-09-19T06:18:14;12.55;;;2.70;;
14732;SDS011;7457;50.960;6.830;2023-09-19T06:20:45;11.80;;;3.05;;
14732;SDS011;7457;50.960;6.830;2023-09-19T06:23:11;12.80;;;3.17;;
14732;SDS011;7457;50.960;6.830;2023-09-19T06:25:37;6.55;;;2.50;;
14732;SDS011;7457;50.960;6.830;2023-09-19T06:28:04;10.85;;;2.85;;
14732;SDS011;7457;50.960;6.830;2023-09-19T06:30:30;7.82;;;2.72;;
14732;SDS011;7457;50.960;6.830;2023-09-19T06:32:57;9.95;;;3.08;;
14732;SDS011;7457;50.960;6.830;2023-09-19T06:35:23;7.68;;;2.40;;
14732;SDS011;7457;50.960;6.830;2023-09-19T06:37:51;12.52;;;2.88;;
14732;SDS011;7457;50.960;6.830;2023-09-19T06:40:18;9.07;;;2.60;;
14732;SDS011;7457;50.960;6.830;2023-09-19T06:42:47;9.90;;;3.05;;
14732;SDS011;7457;50.960;6.830;2023-09-19T06:45:16;9.07;;;2.83;;
14732;SDS011;7457;50.960;6.830;2023-09-19T06:47:51;11.63;;;2.85;;
14732;SDS011;7457;50.960;6.830;2023-09-19T06:50:17;6.93;;;2.40;;
14732;SDS011;7457;50.960;6.830;2023-09-19T06:52:45;7.80;;;2.80;;
14732;SDS011;7457;50.960;6.830;2023-09-19T06:55:15;6.60;;;2.58;;
14732;SDS011;7457;50.960;6.830;2023-09-19T06:57:41;10.73;;;2.60;;
14732;SDS011;7457;50.960;6.830;2023-09-19T07:00:09;7.75;;;3.30;;
14732;SDS011;7457;50.960;6.830;2023-09-19T07:02:43;11.90;;;2.80;;
14732;SDS011;7457;50.960;6.830;2023-09-19T07:05:09;5.88;;;2.53;;
14732;SDS011;7457;50.960;6.830;2023-09-19T07:07:35;9.35;;;3.30;;
14732;SDS011;7457;50.960;6.830;2023-09-19T07:10:01;12.27;;;3.08;;
14732;SDS011;7457;50.960;6.830;2023-09-19T07:12:30;10.13;;;2.33;;
14732;SDS011;7457;50.960;6.830;2023-09-19T07:14:56;9.75;;;3.20;;
14732;SDS011;7457;50.960;6.830;2023-09-19T07:17:22;12.48;;;3.20;;
14732;SDS011;7457;50.960;6.830;2023-09-19T07:19:49;6.18;;;2.30;;
14732;SDS011;7457;50.960;6.830;2023-09-19T07:22:27;11.15;;;2.47;;
14732;SDS011;7457;50.960;6.830;2023-09-19T07:24:52;8.63;;;2.58;;
14732;SDS011;7457;50.960;6.830;2023-09-19T07:27:18;11.32;;;3.30;;
14732;SDS011;7457;50.960;6.830;2023-09-19T07:29:44;9.35;;;2.35;;
14732;SDS011;7457;50.960;6.830;2023-09-19T07:32:10;9.27;;;2.60;;
14732;SDS011;7457;50.960;6.830;2023-09-19T07:34:36;11.25;;;3.30;;
14732;SDS011;7457;50.960;6.830;2023-09-19T07:37:05;9.15;;;2.67;;
14732;SDS011;7457;50.960;6.830;2023-09-19T07:39:31;6.90;;;3.05;;
14732;SDS011;7457;50.960;6.830;2023-09-19T07:44:50;7.93;;;2.88;;
14732;SDS011;7457;50.960;6.830;2023-09-19T07:47:16;12.20;;;2.78;;
14732;SDS011;7457;50.960;6.830;2023-09-19T07:49:42;8.07;;;2.67;;
14732;SDS011;7457;50.960;6.830;2023-09-19T07:52:08;11.68;;;3.00;;
14732;SDS011;7457;50.960;6.830;2023-09-19T07:54:35;5.82;;;2.25;;
14732;SDS011;7457;50.960;6.830;2023-09-19T07:57:02;18.13;;;3.35;;
14732;SDS011;7457;50.960;6.830;2023-09-19T07:59:27;4.97;;;2.33;;
14732;SDS011;7457;50.960;6.830;2023-09-19T08:01:53;11.50;;;2.50;;
14732;SDS011;7457;50.960;6.830;2023-09-19T08:04:19;14.40;;;3.10;;
14732;SDS011;7457;50.960;6.830;2023-09-19T08:06:57;9.68;;;2.45;;
14732;SDS011;7457;50.960;6.830;2023-09-19T08:09:25;8.90;;;2.50;;
14732;SDS011;7457;50.960;6.830;2023-09-19T08:11:52;6.00;;;2.53;;
14732;SDS011;7457;50.960;6.830;2023-09-19T08:14:18;7.55;;;2.35;;
14732;SDS011;7457;50.960;6.830;2023-09-19T08:16:55;8.48;;;2.55;;
14732;SDS011;7457;50.960;6.830;2023-09-19T08:19:22;10.65;;;2.40;;
14732;SDS011;7457;50.960;6.830;2023-09-19T08:21:48;9.63;;;2.95;;
14732;SDS011;7457;50.960;6.830;2023-09-19T08:24:14;7.18;;;2.65;;
14732;SDS011;7457;50.960;6.830;2023-09-19T08:26:52;8.45;;;2.10;;
14732;SDS011;7457;50.960;6.830;2023-09-19T08:29:19;11.48;;;2.50;;
14732;SDS011;7457;50.960;6.830;2023-09-19T08:31:45;9.43;;;2.30;;
14732;SDS011;7457;50.960;6.830;2023-09-19T08:34:12;10.63;;;2.30;;
14732;SDS011;7457;50.960;6.830;2023-09-19T08:36:51;4.80;;;2.55;;
14732;SDS011;7457;50.960;6.830;2023-09-19T08:39:21;6.25;;;2.08;;
14732;SDS011;7457;50.960;6.830;2023-09-19T08:41:47;7.30;;;2.58;;
14732;SDS011;7457;50.960;6.830;2023-09-19T08:44:13;14.30;;;2.42;;
14732;SDS011;7457;50.960;6.830;2023-09-19T08:46:48;6.13;;;2.30;;
14732;SDS011;7457;50.960;6.830;2023-09-19T08:49:37;6.88;;;2.58;;
14732;SDS011;7457;50.960;6.830;2023-09-19T08:52:25;6.30;;;2.50;;
14732;SDS011;7457;50.960;6.830;2023-09-19T08:54:52;10.10;;;2.47;;
14732;SDS011;7457;50.960;6.830;2023-09-19T08:57:24;7.50;;;1.90;;
14732;SDS011;7457;50.960;6.830;2023-09-19T08:59:54;10.70;;;2.45;;
14732;SDS011;7457;50.960;6.830;2023-09-19T09:02:21;7.18;;;2.65;;
14732;SDS011;7457;50.960;6.830;2023-09-19T09:04:48;7.03;;;2.45;;
14732;SDS011;7457;50.960;6.830;2023-09-19T09:07:30;8.07;;;2.65;;
14732;SDS011;7457;50.960;6.830;2023-09-19T09:09:56;5.55;;;2.20;;
14732;SDS011;7457;50.960;6.830;2023-09-19T09:12:22;6.43;;;1.95;;
14732;SDS011;7457;50.960;6.830;2023-09-19T09:14:48;6.13;;;2.20;;
14732;SDS011;7457;50.960;6.830;2023-09-19T09:17:15;6.95;;;2.28;;
14732;SDS011;7457;50.960;6.830;2023-09-19T09:19:45;7.38;;;2.10;;
14732;SDS011;7457;50.960;6.830;2023-09-19T09:22:12;7.47;;;1.88;;
14732;SDS011;7457;50.960;6.830;2023-09-19T09:24:50;3.63;;;2.08;;
14732;SDS011;7457;50.960;6.830;2023-09-19T09:27:29;3.47;;;1.92;;
14732;SDS011;7457;50.960;6.830;2023-09-19T09:29:56;9.65;;;2.10;;
14732;SDS011;7457;50.960;6.830;2023-09-19T09:32:29;5.78;;;2.10;;
14732;SDS011;7457;50.960;6.830;2023-09-19T09:34:59;5.13;;;1.92;;
14732;SDS011;7457;50.960;6.830;2023-09-19T09:37:25;7.93;;;1.73;;
14732;SDS011;7457;50.960;6.830;2023-09-19T09:42:30;5.55;;;2.10;;
14732;SDS011;7457;50.960;6.830;2023-09-19T09:47:45;6.07;;;2.22;;
14732;SDS011;7457;50.960;6.830;2023-09-19T09:50:24;5.53;;;1.90;;
14732;SDS011;7457;50.960;6.830;2023-09-19T09:53:28;7.05;;;2.03;;
14732;SDS011;7457;50.960;6.830;2023-09-19T09:56:04;4.43;;;2.10;;
14732;SDS011;7457;50.960;6.830;2023-09-19T09:58:35;9.25;;;2.47;;
14732;SDS011;7457;50.960;6.830;2023-09-19T10:01:24;7.30;;;1.98;;
14732;SDS011;7457;50.960;6.830;2023-09-19T10:03:56;4.95;;;2.00;;
14732;SDS011;7457;50.960;6.830;2023-09-19T10:06:23;6.20;;;2.05;;
14732;SDS011;7457;50.960;6.830;2023-09-19T10:12:00;5.25;;;2.45;;
14732;SDS011;7457;50.960;6.830;2023-09-19T10:14:30;5.43;;;1.95;;
14732;SDS011;7457;50.960;6.830;2023-09-19T10:17:03;7.35;;;1.85;;
14732;SDS011;7457;50.960;6.830;2023-09-19T10:19:54;6.55;;;2.05;;
14732;SDS011;7457;50.960;6.830;2023-09-19T10:22:22;4.93;;;2.10;;
14732;SDS011;7457;50.960;6.830;2023-09-19T10:24:49;5.18;;;2.05;;
14732;SDS011;7457;50.960;6.830;2023-09-19T10:27:18;4.78;;;1.73;;
14732;SDS011;7457;50.960;6.830;2023-09-19T10:29:48;4.13;;;1.92;;
14732;SDS011;7457;50.960;6.830;2023-09-19T10:32:19;5.85;;;2.17;;
14732;SDS011;7457;50.960;6.830;2023-09-19T10:34:49;7.00;;;1.77;;
14732;SDS011;7457;50.960;6.830;2023-09-19T10:37:15;4.47;;;1.75;;
14732;SDS011;7457;50.960;6.830;2023-09-19T10:39:48;5.13;;;1.80;;
14732;SDS011;7457;50.960;6.830;2023-09-19T10:42:18;5.25;;;2.03;;
14732;SDS011;7457;50.960;6.830;2023-09-19T10:44:45;4.30;;;1.90;;
14732;SDS011;7457;50.960;6.830;2023-09-19T10:47:15;5.25;;;1.90;;
14732;SDS011;7457;50.960;6.830;2023-09-19T10:49:44;3.95;;;1.55;;
14732;SDS011;7457;50.960;6.830;2023-09-19T10:52:17;5.00;;;2.10;;
14732;SDS011;7457;50.960;6.830;2023-09-19T10:54:48;5.90;;;2.00;;
14732;SDS011;7457;50.960;6.830;2023-09-19T10:57:20;9.15;;;2.45;;
14732;SDS011;7457;50.960;6.830;2023-09-19T11:00:04;5.72;;;1.92;;
14732;SDS011;7457;50.960;6.830;2023-09-19T11:05:35;7.65;;;2.47;;
14732;SDS011;7457;50.960;6.830;2023-09-19T11:08:05;5.05;;;2.13;;
14732;SDS011;7457;50.960;6.830;2023-09-19T11:10:48;5.00;;;2.15;;
14732;SDS011;7457;50.960;6.830;2023-09-19T11:13:26;8.77;;;2.55;;
14732;SDS011;7457;50.960;6.830;2023-09-19T11:26:56;5.65;;;2.58;;
14732;SDS011;7457;50.960;6.830;2023-09-19T11:29:39;4.68;;;2.30;;
14732;SDS011;7457;50.960;6.830;2023-09-19T11:32:05;5.05;;;2.50;;
14732;SDS011;7457;50.960;6.830;2023-09-19T11:39:38;4.00;;;2.08;;
14732;SDS011;7457;50.960;6.830;2023-09-19T11:48:21;5.13;;;2.10;;
14732;SDS011;7457;50.960;6.830;2023-09-19T11:50:52;6.95;;;2.20;;
14732;SDS011;7457;50.960;6.830;2023-09-19T11:53:18;3.50;;;1.90;;
14732;SDS011;7457;50.960;6.830;2023-09-19T11:55:45;5.75;;;2.22;;
14732;SDS011;7457;50.960;6.830;2023-09-19T11:58:11;7.30;;;2.10;;
14732;SDS011;7457;50.960;6.830;2023-09-19T12:00:41;5.90;;;1.95;;
14732;SDS011;7457;50.960;6.830;2023-09-19T12:03:10;6.28;;;1.85;;
14732;SDS011;7457;50.960;6.830;2023-09-19T12:05:39;6.97;;;2.20;;
14732;SDS011;7457;50.960;6.830;2023-09-19T12:08:04;5.47;;;2.05;;
14732;SDS011;7457;50.960;6.830;2023-09-19T12:10:34;6.35;;;2.10;;
14732;SDS011;7457;50.960;6.830;2023-09-19T12:13:19;5.07;;;2.00;;
14732;SDS011;7457;50.960;6.830;2023-09-19T12:15:45;11.00;;;2.40;;
14732;SDS011;7457;50.960;6.830;2023-09-19T12:18:28;4.45;;;2.00;;
14732;SDS011;7457;50.960;6.830;2023-09-19T12:20:54;8.00;;;2.17;;
14732;SDS011;7457;50.960;6.830;2023-09-19T12:23:21;5.95;;;2.03;;
14732;SDS011;7457;50.960;6.830;2023-09-19T12:25:46;6.57;;;2.35;;
14732;SDS011;7457;50.960;6.830;2023-09-19T12:28:17;9.50;;;2.25;;
14732;SDS011;7457;50.960;6.830;2023-09-19T12:30:43;6.57;;;2.28;;
14732;SDS011;7457;50.960;6.830;2023-09-19T12:33:18;5.03;;;1.92;;
14732;SDS011;7457;50.960;6.830;2023-09-19T12:35:53;4.95;;;1.67;;
14732;SDS011;7457;50.960;6.830;2023-09-19T12:38:23;12.98;;;2.90;;
14732;SDS011;7457;50.960;6.830;2023-09-19T12:40:57;5.78;;;2.10;;
14732;SDS011;7457;50.960;6.830;2023-09-19T12:43:25;7.30;;;2.00;;
14732;SDS011;7457;50.960;6.830;2023-09-19T12:45:52;4.90;;;1.80;;
14732;SDS011;7457;50.960;6.830;2023-09-19T12:53:56;7.13;;;2.30;;
14732;SDS011;7457;50.960;6.830;2023-09-19T12:56:23;5.45;;;1.90;;
14732;SDS011;7457;50.960;6.830;2023-09-19T13:01:15;3.67;;;1.65;;
14732;SDS011;7457;50.960;6.830;2023-09-19T13:03:41;2.80;;;1.40;;
14732;SDS011;7457;50.960;6.830;2023-09-19T13:06:07;9.02;;;1.70;;
14732;SDS011;7457;50.960;6.830;2023-09-19T13:08:35;11.48;;;1.83;;
14732;SDS011;7457;50.960;6.830;2023-09-19T13:13:45;4.55;;;1.58;;
14732;SDS011;7457;50.960;6.830;2023-09-19T13:19:46;5.47;;;1.80;;
14732;SDS011;7457;50.960;6.830;2023-09-19T13:25:10;4.40;;;1.33;;
14732;SDS011;7457;50.960;6.830;2023-09-19T13:27:54;4.75;;;1.40;;
14732;SDS011;7457;50.960;6.830;2023-09-19T13:30:24;9.15;;;1.83;;
14732;SDS011;7457;50.960;6.830;2023-09-19T13:32:51;5.05;;;1.77;;
14732;SDS011;7457;50.960;6.830;2023-09-19T13:35:17;5.28;;;1.20;;
14732;SDS011;7457;50.960;6.830;2023-09-19T13:37:43;12.02;;;1.92;;
14732;SDS011;7457;50.960;6.830;2023-09-19T13:40:14;10.80;;;1.85;;
14732;SDS011;7457;50.960;6.830;2023-09-19T13:42:41;11.20;;;2.58;;
14732;SDS011;7457;50.960;6.830;2023-09-19T13:45:07;5.85;;;1.65;;
14732;SDS011;7457;50.960;6.830;2023-09-19T13:47:36;6.18;;;1.55;;
14732;SDS011;7457;50.960;6.830;2023-09-19T13:50:03;2.92;;;1.10;;
14732;SDS011;7457;50.960;6.830;2023-09-19T13:52:30;5.57;;;1.80;;
14732;SDS011;7457;50.960;6.830;2023-09-19T13:54:56;4.53;;;1.55;;
14732;SDS011;7457;50.960;6.830;2023-09-19T13:57:23;7.82;;;1.73;;
14732;SDS011;7457;50.960;6.830;2023-09-19T13:59:49;3.45;;;1.15;;
14732;SDS011;7457;50.960;6.830;2023-09-19T14:02:14;3.85;;;1.30;;
14732;SDS011;7457;50.960;6.830;2023-09-19T14:04:43;4.45;;;1.52;;
14732;SDS011;7457;50.960;6.830;2023-09-19T14:07:21;8.40;;;2.08;;
14732;SDS011;7457;50.960;6.830;2023-09-19T14:09:47;2.45;;;1.40;;
14732;SDS011;7457;50.960;6.830;2023-09-19T14:12:13;3.95;;;1.33;;
14732;SDS011;7457;50.960;6.830;2023-09-19T14:14:39;12.93;;;2.17;;
14732;SDS011;7457;50.960;6.830;2023-09-19T14:17:04;8.70;;;2.00;;
14732;SDS011;7457;50.960;6.830;2023-09-19T14:19:32;8.82;;;1.83;;
14732;SDS011;7457;50.960;6.830;2023-09-19T14:21:58;7.30;;;1.85;;
14732;SDS011;7457;50.960;6.830;2023-09-19T14:24:25;5.88;;;1.42;;
14732;SDS011;7457;50.960;6.830;2023-09-19T14:26:50;16.77;;;2.17;;
14732;SDS011;7457;50.960;6.830;2023-09-19T14:29:16;10.57;;;2.47;;
14732;SDS011;7457;50.960;6.830;2023-09-19T14:31:42;10.30;;;1.60;;
14732;SDS011;7457;50.960;6.830;2023-09-19T14:34:08;11.00;;;1.92;;
14732;SDS011;7457;50.960;6.830;2023-09-19T14:39:24;9.65;;;1.50;;
14732;SDS011;7457;50.960;6.830;2023-09-19T14:41:50;6.95;;;1.33;;
14732;SDS011;7457;50.960;6.830;2023-09-19T14:44:15;15.43;;;1.58;;
14732;SDS011;7457;50.960;6.830;2023-09-19T14:46:41;3.92;;;1.45;;
14732;SDS011;7457;50.960;6.830;2023-09-19T14:49:10;10.20;;;1.92;;
14732;SDS011;7457;50.960;6.830;2023-09-19T14:51:37;5.68;;;1.90;;
14732;SDS011;7457;50.960;6.830;2023-09-19T14:54:04;7.55;;;1.35;;
14732;SDS011;7457;50.960;6.830;2023-09-19T14:56:38;4.47;;;1.30;;
14732;SDS011;7457;50.960;6.830;2023-09-19T14:59:04;4.35;;;1.20;;
14732;SDS011;7457;50.960;6.830;2023-09-19T15:01:31;3.30;;;1.08;;
14732;SDS011;7457;50.960;6.830;2023-09-19T15:03:57;9.32;;;1.50;;
14732;SDS011;7457;50.960;6.830;2023-09-19T15:09:20;7.57;;;1.70;;
14732;SDS011;7457;50.960;6.830;2023-09-19T15:11:51;6.38;;;1.65;;
14732;SDS011;7457;50.960;6.830;2023-09-19T15:14:18;8.82;;;1.42;;
14732;SDS011;7457;50.960;6.830;2023-09-19T15:16:53;6.22;;;1.58;;
14732;SDS011;7457;50.960;6.830;2023-09-19T15:19:18;4.25;;;1.45;;
14732;SDS011;7457;50.960;6.830;2023-09-19T15:21:44;8.27;;;1.73;;
14732;SDS011;7457;50.960;6.830;2023-09-19T15:24:09;9.82;;;1.85;;
14732;SDS011;7457;50.960;6.830;2023-09-19T15:26:36;8.00;;;1.30;;
14732;SDS011;7457;50.960;6.830;2023-09-19T15:29:07;10.65;;;1.48;;
14732;SDS011;7457;50.960;6.830;2023-09-19T15:31:34;9.45;;;1.80;;
14732;SDS011;7457;50.960;6.830;2023-09-19T15:34:03;8.55;;;1.55;;
14732;SDS011;7457;50.960;6.830;2023-09-19T15:36:30;5.72;;;1.20;;
14732;SDS011;7457;50.960;6.830;2023-09-19T15:38:57;2.15;;;0.88;;
14732;SDS011;7457;50.960;6.830;2023-09-19T15:41:25;4.05;;;1.30;;
14732;SDS011;7457;50.960;6.830;2023-09-19T15:43:52;2.72;;;1.00;;
14732;SDS011;7457;50.960;6.830;2023-09-19T15:46:19;4.65;;;1.23;;
14732;SDS011;7457;50.960;6.830;2023-09-19T15:48:45;4.28;;;1.80;;
14732;SDS011;7457;50.960;6.830;2023-09-19T15:51:11;10.68;;;1.33;;
14732;SDS011;7457;50.960;6.830;2023-09-19T15:56:12;6.75;;;1.67;;
14732;SDS011;7457;50.960;6.830;2023-09-19T15:58:39;4.65;;;1.60;;
14732;SDS011;7457;50.960;6.830;2023-09-19T16:01:05;6.35;;;2.13;;
14732;SDS011;7457;50.960;6.830;2023-09-19T16:03:38;4.95;;;1.50;;
14732;SDS011;7457;50.960;6.830;2023-09-19T16:06:08;4.38;;;1.60;;
14732;SDS011;7457;50.960;6.830;2023-09-19T16:08:35;3.13;;;1.42;;
14732;SDS011;7457;50.960;6.830;2023-09-19T16:11:03;3.38;;;1.35;;
14732;SDS011;7457;50.960;6.830;2023-09-19T16:13:29;2.63;;;1.35;;
14732;SDS011;7457;50.960;6.830;2023-09-19T16:15:54;2.85;;;1.15;;
14732;SDS011;7457;50.960;6.830;2023-09-19T16:18:20;6.32;;;1.42;;
14732;SDS011;7457;50.960;6.830;2023-09-19T16:20:46;7.63;;;1.52;;
14732;SDS011;7457;50.960;6.830;2023-09-19T16:23:12;9.93;;;2.83;;
14732;SDS011;7457;50.960;6.830;2023-09-19T16:25:38;8.90;;;1.50;;
14732;SDS011;7457;50.960;6.830;2023-09-19T16:28:03;3.45;;;1.30;;
14732;SDS011;7457;50.960;6.830;2023-09-19T16:30:31;5.25;;;1.50;;
14732;SDS011;7457;50.960;6.830;2023-09-19T16:32:58;4.13;;;1.27;;